Time;durP1;ratioP1;P1;durP2;ratioP2;P2;SDS_P1;SDS_P2;PMS_P1;PMS_P2;Temp;Humidity;BMP_temperature;BMP_pressure;BME280_temperature;BME280_humidity;BME280_pressure;Samples;Min_cycle;Max_cycle;Signal;HPM_P1;HPM_P2
2022/04/29 00:02:15;;;;;;;;;;;;;;;18.46;70.64;101423.06;7402915;19;1471;-38
2022/04/29 00:04:44;;;;;;;;;;;;;;;18.50;70.33;101437.94;7404460;19;1407;-38
2022/04/29 00:07:13;;;;;;;;;;;;;;;18.47;70.55;101414.94;7405781;19;1600;-38
2022/04/29 00:09:41;;;;;;;;;;;;;;;18.46;70.33;101444.50;7407218;19;1745;-38
2022/04/29 00:12:10;;;;;;;;;;;;;;;18.48;70.46;101448.78;7406787;19;1585;-38
2022/04/29 00:14:39;;;;;;;;;;;;;;;18.50;70.45;101435.25;7404831;19;1731;-38
2022/04/29 00:17:08;;;;;;;;;;;;;;;18.48;69.98;101437.19;7405354;19;1810;-37
2022/04/29 00:19:38;;;;;;;;;;;;;;;18.44;70.37;101435.72;7404306;19;1849;-38
2022/04/29 00:22:07;;;;;;;;;;;;;;;18.44;70.16;101435.72;7405297;19;1606;-38
2022/04/29 00:24:35;;;;;;;;;;;;;;;18.43;70.66;101440.25;7407078;19;1502;-38
2022/04/29 00:27:03;;;;;;;;;;;;;;;18.43;70.05;101436.72;7405655;19;1941;-38
2022/04/29 00:29:31;;;;;;;;;;;;;;;18.45;70.22;101437.44;7404885;19;1829;-38
2022/04/29 00:32:00;;;;;;;;;;;;;;;18.45;70.46;101435.63;7404988;19;1752;-38
2022/04/29 00:34:28;;;;;;;;;;;;;;;18.42;70.50;101435.00;7405632;19;1540;-38
2022/04/29 00:36:59;;;;;;;;;;;;;;;18.44;70.45;101441.09;7406820;19;1110;-38
2022/04/29 00:39:27;;;;;;;;;;;;;;;18.43;70.56;101437.56;7403754;19;1868;-38
2022/04/29 00:41:55;;;;;;;;;;;;;;;18.44;70.27;101425.00;7404990;19;1642;-38
2022/04/29 00:44:23;;;;;;;;;;;;;;;18.44;70.52;101446.44;7404364;19;1860;-38
2022/04/29 00:46:52;;;;;;;;;;;;;;;18.45;70.03;101434.78;7403831;19;1476;-39
2022/04/29 00:49:20;;;;;;;;;;;;;;;18.44;70.17;101425.00;7405112;19;1596;-38
2022/04/29 00:51:51;;;;;;;;;;;;;;;18.46;70.53;101431.09;7404966;19;1816;-38
2022/04/29 00:54:25;;;;;;;;;;;;;;;18.45;70.40;101418.72;7403942;19;1609;-37
2022/04/29 00:56:54;;;;;;;;;;;;;;;18.47;70.35;101422.13;7404180;19;1842;-38
2022/04/29 00:59:26;;;;;;;;;;;;;;;18.41;70.59;101399.34;7403502;19;1853;-38
2022/04/29 01:01:56;;;;;;;;;;;;;;;18.42;70.60;101393.03;7403070;19;1707;-38
2022/04/29 01:04:27;;;;;;;;;;;;;;;18.40;70.24;101407.47;7404458;19;1561;-39
2022/04/29 01:06:56;;;;;;;;;;;;;;;18.43;69.96;101413.47;7405677;19;1509;-38
2022/04/29 01:09:26;;;;;;;;;;;;;;;18.39;70.07;101409.31;7403879;19;1716;-38
2022/04/29 01:11:55;;;;;;;;;;;;;;;18.42;70.50;101418.91;7403832;19;1698;-38
2022/04/29 01:14:24;;;;;;;;;;;;;;;18.41;70.50;101426.09;7403441;19;1703;-38
2022/04/29 01:16:52;;;;;;;;;;;;;;;18.40;70.37;101410.16;7404508;19;1637;-38
2022/04/29 01:19:20;;;;;;;;;;;;;;;18.38;70.58;101415.66;7402720;19;1850;-38
2022/04/29 01:21:48;;;;;;;;;;;;;;;18.40;70.63;101418.19;7403957;19;1567;-38
2022/04/29 01:24:19;;;;;;;;;;;;;;;18.38;70.33;101409.41;7402046;19;1537;-39
2022/04/29 01:26:47;;;;;;;;;;;;;;;18.39;70.19;101413.81;7402597;19;1504;-37
2022/04/29 01:29:17;;;;;;;;;;;;;;;18.38;70.26;101414.78;7401024;19;1504;-38
2022/04/29 01:31:46;;;;;;;;;;;;;;;18.38;70.23;101420.13;7399482;19;1338;-38
2022/04/29 01:34:14;;;;;;;;;;;;;;;18.39;70.21;101417.34;7403102;19;1634;-38
2022/04/29 01:36:42;;;;;;;;;;;;;;;18.38;70.31;101402.25;7403578;19;1540;-38
2022/04/29 01:39:11;;;;;;;;;;;;;;;18.38;70.24;101414.78;7401813;19;1860;-38
2022/04/29 01:41:41;;;;;;;;;;;;;;;18.41;70.41;101410.03;7403036;19;1574;-38
2022/04/29 01:44:10;;;;;;;;;;;;;;;18.39;70.46;101405.78;7401930;19;1465;-37
2022/04/29 01:46:38;;;;;;;;;;;;;;;18.40;70.12;101412.81;7400751;19;1641;-38
2022/04/29 01:49:06;;;;;;;;;;;;;;;18.40;69.78;101407.47;7401832;19;1426;-38
2022/04/29 01:51:34;;;;;;;;;;;;;;;18.41;70.35;101403.84;7401298;19;1379;-37
2022/04/29 01:54:02;;;;;;;;;;;;;;;18.38;70.55;101390.66;7402193;19;1692;-38
2022/04/29 01:56:37;;;;;;;;;;;;;;;18.37;70.42;101384.47;7402917;19;1668;-38
2022/04/29 01:59:08;;;;;;;;;;;;;;;18.39;70.25;101400.44;7400045;19;1584;-38
2022/04/29 02:01:37;;;;;;;;;;;;;;;18.38;70.15;101388.00;7396317;19;3543;-55
2022/04/29 02:04:05;;;;;;;;;;;;;;;18.37;69.82;101392.50;7404482;19;1657;-56
2022/04/29 02:06:34;;;;;;;;;;;;;;;18.38;70.25;101388.00;7403145;19;1708;-54
2022/04/29 02:09:02;;;;;;;;;;;;;;;18.36;69.78;101393.47;7402263;19;1740;-52
2022/04/29 02:11:31;;;;;;;;;;;;;;;18.36;70.24;101390.78;7404641;19;1439;-53
2022/04/29 02:13:59;;;;;;;;;;;;;;;18.35;70.32;101381.06;7404061;19;1401;-58
2022/04/29 02:16:30;;;;;;;;;;;;;;;18.38;70.13;101390.66;7405359;19;1376;-57
2022/04/29 02:18:58;;;;;;;;;;;;;;;18.37;69.78;101395.19;7406587;19;1171;-53
2022/04/29 02:21:27;;;;;;;;;;;;;;;18.37;70.32;101386.31;7402824;19;1842;-58
2022/04/29 02:23:55;;;;;;;;;;;;;;;18.37;70.02;101386.31;7405053;19;1349;-58
2022/04/29 02:26:23;;;;;;;;;;;;;;;18.36;69.90;101387.25;7404197;19;1586;-53
2022/04/29 02:28:52;;;;;;;;;;;;;;;18.35;70.12;101396.28;7403948;19;1424;-53
2022/04/29 02:31:20;;;;;;;;;;;;;;;18.34;69.91;101386.53;7404695;19;1175;-54
2022/04/29 02:33:51;;;;;;;;;;;;;;;18.33;70.52;101391.03;7405721;19;1266;-58
2022/04/29 02:36:20;;;;;;;;;;;;;;;18.33;70.22;101390.19;7404112;19;1635;-58
2022/04/29 02:38:48;;;;;;;;;;;;;;;18.34;70.47;101383.84;7404019;19;1376;-55
2022/04/29 02:41:17;;;;;;;;;;;;;;;18.32;70.65;101400.00;7402273;19;1861;-58
2022/04/29 02:43:45;;;;;;;;;;;;;;;18.35;70.27;101394.44;7402935;19;1421;-53
2022/04/29 02:46:13;;;;;;;;;;;;;;;18.33;70.35;101390.19;7405237;19;1551;-54
2022/04/29 02:48:43;;;;;;;;;;;;;;;18.36;70.15;101398.81;7405209;19;1673;-56
2022/04/29 02:51:15;;;;;;;;;;;;;;;18.33;70.34;101411.59;7403287;19;1559;-54
2022/04/29 02:53:43;;;;;;;;;;;;;;;18.33;70.31;101401.75;7404941;19;1564;-58
2022/04/29 02:56:12;;;;;;;;;;;;;;;18.35;70.14;101417.69;7404039;19;1523;-53
2022/04/29 02:58:40;;;;;;;;;;;;;;;18.29;70.60;101401.09;7402180;19;1437;-55
2022/04/29 03:01:08;;;;;;;;;;;;;;;18.29;70.31;101390.41;7401303;19;1844;-58
2022/04/29 03:03:37;;;;;;;;;;;;;;;18.31;70.09;101413.53;7405471;19;980;-53
2022/04/29 03:06:06;;;;;;;;;;;;;;;18.32;70.50;101416.06;7403246;19;1650;-57
2022/04/29 03:08:37;;;;;;;;;;;;;;;18.31;70.24;101417.06;7403670;19;1417;-58
2022/04/29 03:11:05;;;;;;;;;;;;;;;18.31;70.59;101429.59;7406576;19;1539;-54
2022/04/29 03:13:34;;;;;;;;;;;;;;;18.28;70.09;101434.22;7410784;19;1562;-58
2022/04/29 03:16:03;;;;;;;;;;;;;;;18.29;70.47;101429.72;7411363;19;1634;-57
2022/04/29 03:18:31;;;;;;;;;;;;;;;18.32;70.66;101431.28;7412133;19;1614;-58
2022/04/29 03:21:00;;;;;;;;;;;;;;;18.32;70.41;101436.66;7408788;19;1836;-57
2022/04/29 03:23:28;;;;;;;;;;;;;;;18.32;70.58;101442.00;7410700;19;1646;-54
2022/04/29 03:25:59;;;;;;;;;;;;;;;18.29;70.55;101446.63;7411106;19;1614;-54
2022/04/29 03:28:28;;;;;;;;;;;;;;;18.29;70.39;101449.31;7410038;19;1476;-53
2022/04/29 03:30:56;;;;;;;;;;;;;;;18.31;70.30;101448.34;7411695;19;1582;-57
2022/04/29 03:33:25;;;;;;;;;;;;;;;18.29;70.53;101448.47;7411507;19;1621;-58
2022/04/29 03:35:53;;;;;;;;;;;;;;;18.29;70.24;101433.25;7410755;19;1531;-55
2022/04/29 03:38:22;;;;;;;;;;;;;;;18.29;70.15;101449.31;7410927;19;1622;-53
2022/04/29 03:40:50;;;;;;;;;;;;;;;18.29;70.21;101438.59;7407182;19;1844;-58
2022/04/29 03:43:21;;;;;;;;;;;;;;;18.27;70.61;101445.88;7410716;19;1468;-57
2022/04/29 03:45:50;;;;;;;;;;;;;;;18.32;70.38;101463.44;7410690;19;1479;-58
2022/04/29 03:48:19;;;;;;;;;;;;;;;18.28;70.35;101450.28;7411426;19;1626;-54
2022/04/29 03:50:48;;;;;;;;;;;;;;;18.30;70.46;101455.50;7409967;19;1357;-53
2022/04/29 03:53:16;;;;;;;;;;;;;;;18.27;70.11;101448.56;7409362;19;1750;-53
2022/04/29 03:55:44;;;;;;;;;;;;;;;18.29;70.23;101454.66;7407768;19;1542;-58
2022/04/29 03:58:13;;;;;;;;;;;;;;;18.28;70.60;101442.25;7406809;19;1479;-58
2022/04/29 04:00:43;;;;;;;;;;;;;;;18.29;70.30;101443.94;7408536;19;1867;-58
2022/04/29 04:03:12;;;;;;;;;;;;;;;18.32;70.46;101448.22;7408807;19;1457;-57
2022/04/29 04:06:49;;;;;;;;;;;;;;;18.31;70.04;101464.41;7408898;19;1686;-54
2022/04/29 04:08:30;;;;;;;;;;;;;;;18.26;70.58;101457.56;7407755;19;1891;-58
2022/04/29 04:10:58;;;;;;;;;;;;;;;18.28;70.12;101457.44;7408340;19;1536;-53
2022/04/29 04:13:27;;;;;;;;;;;;;;;18.34;70.57;101456.13;7406161;19;1800;-60
2022/04/29 04:15:57;;;;;;;;;;;;;;;18.38;70.31;101452.25;7407501;19;1353;-60
2022/04/29 04:18:26;;;;;;;;;;;;;;;18.39;69.92;101465.53;7405272;19;1523;-54
2022/04/29 04:20:54;;;;;;;;;;;;;;;18.40;70.60;101471.75;7404207;19;1851;-53
2022/04/29 04:23:23;;;;;;;;;;;;;;;18.35;70.24;101465.88;7405150;19;1503;-58
2022/04/29 04:25:51;;;;;;;;;;;;;;;18.35;70.59;101471.25;7407253;19;1618;-58
2022/04/29 04:28:19;;;;;;;;;;;;;;;18.35;70.22;101452.50;7406744;19;1722;-58
2022/04/29 04:30:48;;;;;;;;;;;;;;;18.33;70.26;101459.78;7407172;19;1505;-55
2022/04/29 04:33:19;;;;;;;;;;;;;;;18.35;70.65;101465.88;7406267;19;1547;-55
2022/04/29 04:35:47;;;;;;;;;;;;;;;18.34;70.24;101462.34;7407013;19;1540;-58
2022/04/29 04:38:16;;;;;;;;;;;;;;;18.45;70.47;101480.31;7406889;19;1697;-60
2022/04/29 04:40:47;;;;;;;;;;;;;;;18.52;70.44;101519.03;7405920;19;1862;-58
2022/04/29 04:43:15;;;;;;;;;;;;;;;18.54;69.94;101481.44;7408628;19;1658;-60
2022/04/29 04:45:44;;;;;;;;;;;;;;;18.48;70.39;101470.22;7408213;19;1543;-59
2022/04/29 04:48:12;;;;;;;;;;;;;;;18.49;70.22;101477.28;7409099;19;1535;-60
2022/04/29 04:50:43;;;;;;;;;;;;;;;18.59;70.16;101482.78;7407360;19;1318;-59
2022/04/29 04:53:11;;;;;;;;;;;;;;;18.68;69.54;101482.09;7408317;19;1317;-53
2022/04/29 04:55:40;;;;;;;;;;;;;;;18.68;70.06;101487.47;7406682;19;1631;-53
2022/04/29 04:58:09;;;;;;;;;;;;;;;18.67;69.69;101485.75;7407774;19;1461;-58
2022/04/29 05:00:39;;;;;;;;;;;;;;;18.67;69.85;101485.75;7407292;19;1861;-58
2022/04/29 05:03:07;;;;;;;;;;;;;;;18.62;70.25;101469.19;7406974;19;1873;-53
2022/04/29 05:05:36;;;;;;;;;;;;;;;18.65;70.17;101497.56;7405576;19;1665;-53
2022/04/29 05:08:07;;;;;;;;;;;;;;;18.61;70.31;101480.84;7406709;19;1505;-53
2022/04/29 05:10:35;;;;;;;;;;;;;;;18.62;70.08;101489.72;7404961;19;1347;-54
2022/04/29 05:13:03;;;;;;;;;;;;;;;18.61;69.70;101488.88;7407689;19;1551;-56
2022/04/29 05:15:32;;;;;;;;;;;;;;;18.68;69.95;101487.47;7398684;19;1536;-53
2022/04/29 05:18:00;;;;;;;;;;;;;;;18.73;69.50;101496.97;7400704;19;1535;-53
2022/04/29 05:20:28;;;;;;;;;;;;;;;18.82;70.04;101485.56;7402212;19;1839;-51
2022/04/29 05:22:57;;;;;;;;;;;;;;;18.80;69.86;101484.84;7395346;19;1271;-55
2022/04/29 05:25:28;;;;;;;;;;;;;;;18.79;69.76;101484.00;7397594;19;1590;-54
2022/04/29 05:27:56;;;;;;;;;;;;;;;18.68;70.16;101482.09;7404427;19;1576;-53
2022/04/29 05:30:24;;;;;;;;;;;;;;;18.65;70.01;101509.13;7402070;19;1546;-56
2022/04/29 05:32:53;;;;;;;;;;;;;;;18.65;70.35;101497.56;7403653;19;1633;-62
2022/04/29 05:35:22;;;;;;;;;;;;;;;18.66;70.23;101478.69;7404441;19;1629;-55
2022/04/29 05:37:51;;;;;;;;;;;;;;;18.72;69.98;101503.28;7404883;19;1587;-54
2022/04/29 05:43:03;;;;;;;;;;;;;;;18.79;69.39;101504.56;7405848;19;1670;-54
2022/04/29 05:45:31;;;;;;;;;;;;;;;18.77;70.07;101493.94;7405162;19;1316;-66
2022/04/29 05:47:59;;;;;;;;;;;;;;;18.85;69.38;101520.19;7405963;19;1690;-67
2022/04/29 05:50:28;;;;;;;;;;;;;;;18.92;69.02;101509.84;7406297;19;1349;-59
2022/04/29 05:52:57;;;;;;;;;;;;;;;18.89;69.36;101521.66;7406894;19;1614;-55
2022/04/29 05:55:25;;;;;;;;;;;;;;;18.89;69.37;101513.63;7405515;19;1519;-56
2022/04/29 05:57:53;;;;;;;;;;;;;;;18.83;69.54;101517.63;7405868;19;1551;-55
2022/04/29 06:00:24;;;;;;;;;;;;;;;18.83;69.80;101516.78;7405923;19;1453;-58
2022/04/29 06:02:53;;;;;;;;;;;;;;;18.88;69.63;101517.28;7404864;19;1456;-58
2022/04/29 06:05:22;;;;;;;;;;;;;;;18.82;69.83;101532.00;7404747;19;1633;-54
2022/04/29 06:07:50;;;;;;;;;;;;;;;18.54;68.85;101517.09;7404402;19;1472;-55
2022/04/29 06:10:19;;;;;;;;;;;;;;;18.55;67.46;101517.97;7405067;19;1790;-55
2022/04/29 06:12:48;;;;;;;;;;;;;;;18.50;67.91;101526.31;7406916;19;1723;-55
2022/04/29 06:15:17;;;;;;;;;;;;;;;18.50;68.61;101545.06;7405892;19;1756;-55
2022/04/29 06:17:48;;;;;;;;;;;;;;;18.48;68.22;101531.81;7405259;19;1560;-58
2022/04/29 06:20:16;;;;;;;;;;;;;;;18.47;68.32;101532.78;7404702;19;1570;-55
2022/04/29 06:22:45;;;;;;;;;;;;;;;18.45;68.55;101528.50;7403707;19;1840;-59
2022/04/29 06:25:13;;;;;;;;;;;;;;;18.46;68.41;101538.22;7405991;19;1584;-55
2022/04/29 06:27:41;;;;;;;;;;;;;;;18.47;68.24;101542.63;7405763;19;1737;-57
2022/04/29 06:30:11;;;;;;;;;;;;;;;18.43;68.24;101535.78;7405087;19;1648;-58
2022/04/29 06:32:39;;;;;;;;;;;;;;;18.43;67.90;101535.78;7405523;19;1638;-55
2022/04/29 06:35:11;;;;;;;;;;;;;;;18.43;67.95;101530.44;7403124;19;1551;-58
2022/04/29 06:37:39;;;;;;;;;;;;;;;18.44;68.00;101548.19;7404824;19;1539;-58
2022/04/29 06:40:09;;;;;;;;;;;;;;;18.44;67.60;101543.72;7406039;19;1524;-59
2022/04/29 06:42:45;;;;;;;;;;;;;;;18.43;67.47;101543.84;7403915;19;1894;-58
2022/04/29 06:45:13;;;;;;;;;;;;;;;18.44;67.67;101561.59;7403540;19;1788;-55
2022/04/29 06:47:42;;;;;;;;;;;;;;;18.44;67.23;101548.19;7403875;19;1485;-59
2022/04/29 06:50:13;;;;;;;;;;;;;;;18.42;67.59;101561.72;7405611;19;1425;-58
2022/04/29 06:52:41;;;;;;;;;;;;;;;18.43;67.07;101551.88;7404757;19;1693;-55
2022/04/29 06:55:10;;;;;;;;;;;;;;;18.44;67.63;101553.56;7404519;19;1611;-55
2022/04/29 06:57:41;;;;;;;;;;;;;;;18.43;67.21;101552.72;7403247;19;1559;-58
2022/04/29 07:00:11;;;;;;;;;;;;;;;18.40;67.50;101549.41;7404026;19;1642;-58
2022/04/29 07:02:39;;;;;;;;;;;;;;;18.42;67.26;101542.09;7403109;19;1861;-55
2022/04/29 07:05:08;;;;;;;;;;;;;;;18.44;67.60;101556.25;7404045;19;1311;-55
2022/04/29 07:07:39;;;;;;;;;;;;;;;18.43;67.24;101546.50;7403772;19;1649;-58
2022/04/29 07:10:08;;;;;;;;;;;;;;;18.44;67.64;101549.09;7404043;19;1319;-55
2022/04/29 07:12:42;;;;;;;;;;;;;;;18.46;67.16;101548.94;7403758;19;1508;-56
2022/04/29 07:15:11;;;;;;;;;;;;;;;18.44;67.35;101559.78;7403828;19;1645;-55
2022/04/29 07:17:39;;;;;;;;;;;;;;;18.46;67.19;101554.31;7404413;19;1535;-55
2022/04/29 07:20:08;;;;;;;;;;;;;;;18.45;66.96;101549.94;7403525;19;1363;-58
2022/04/29 07:22:41;;;;;;;;;;;;;;;18.46;67.16;101570.38;7402208;19;1864;-59
2022/04/29 07:25:10;;;;;;;;;;;;;;;18.46;67.29;101551.63;7404406;19;1623;-59
2022/04/29 07:27:38;;;;;;;;;;;;;;;18.47;67.55;101554.19;7403699;19;1886;-59
2022/04/29 07:30:08;;;;;;;;;;;;;;;18.49;67.33;101559.44;7403532;19;1638;-55
2022/04/29 07:32:36;;;;;;;;;;;;;;;18.50;67.42;101547.75;7403971;19;1542;-59
2022/04/29 07:43:10;;;;;;;;;;;;;;;18.60;67.09;101553.28;7402288;19;1815;-59
2022/04/29 07:45:39;;;;;;;;;;;;;;;18.62;66.68;101541.50;7404115;19;1543;-58
2022/04/29 07:48:07;;;;;;;;;;;;;;;18.64;67.03;101550.28;7403698;19;1733;-55
2022/04/29 07:50:36;;;;;;;;;;;;;;;18.64;67.06;101568.16;7401708;19;1522;-55
2022/04/29 07:53:08;;;;;;;;;;;;;;;18.67;67.33;101557.22;7403162;19;1543;-55
2022/04/29 07:55:37;;;;;;;;;;;;;;;18.62;66.87;101562.94;7401661;19;1508;-58
2022/04/29 07:58:06;;;;;;;;;;;;;;;18.63;67.30;101574.50;7406120;19;1802;-58
2022/04/29 08:00:34;;;;;;;;;;;;;;;18.62;67.33;101560.25;7409207;19;1507;-56
2022/04/29 08:03:03;;;;;;;;;;;;;;;18.64;67.43;101561.00;7407983;19;1864;-55
2022/04/29 08:05:31;;;;;;;;;;;;;;;18.64;67.13;101579.75;7410370;19;1587;-56
2022/04/29 08:08:02;;;;;;;;;;;;;;;18.63;67.06;101567.31;7406551;19;1623;-55
2022/04/29 08:10:33;;;;;;;;;;;;;;;18.64;67.45;101563.69;7409641;19;1552;-59
2022/04/29 08:13:02;;;;;;;;;;;;;;;18.69;67.20;101566.00;7410899;19;1606;-55
2022/04/29 08:15:31;;;;;;;;;;;;;;;18.66;67.40;101576.94;7410486;19;1531;-55
2022/04/29 08:17:59;;;;;;;;;;;;;;;18.71;67.41;101544.47;7409401;19;1694;-58
2022/04/29 08:20:28;;;;;;;;;;;;;;;18.72;67.25;101570.28;7409575;19;1657;-57
2022/04/29 08:22:56;;;;;;;;;;;;;;;18.73;67.45;101577.34;7407861;19;1862;-59
2022/04/29 08:25:25;;;;;;;;;;;;;;;18.73;67.28;101558.59;7409454;19;1631;-55
2022/04/29 08:27:56;;;;;;;;;;;;;;;18.74;66.88;101571.00;7410932;19;988;-56
2022/04/29 08:30:24;;;;;;;;;;;;;;;18.72;67.28;101562.25;7409161;19;1677;-54
2022/04/29 08:32:52;;;;;;;;;;;;;;;18.74;67.12;101565.66;7408508;19;1579;-55
2022/04/29 08:35:21;;;;;;;;;;;;;;;18.77;67.37;101557.41;7408099;19;1614;-59
2022/04/29 08:37:49;;;;;;;;;;;;;;;18.76;67.41;101559.25;7409266;19;1634;-55
2022/04/29 08:40:18;;;;;;;;;;;;;;;18.77;67.54;101552.03;7409013;19;1637;-58
2022/04/29 08:42:46;;;;;;;;;;;;;;;18.75;67.23;101548.63;7408051;19;1872;-55
2022/04/29 08:45:18;;;;;;;;;;;;;;;18.71;67.28;101552.50;7408840;19;1635;-58
2022/04/29 08:47:47;;;;;;;;;;;;;;;18.71;67.11;101545.31;7408575;19;1717;-54
2022/04/29 08:50:16;;;;;;;;;;;;;;;18.73;67.25;101580.88;7408307;19;1623;-55
2022/04/29 08:52:45;;;;;;;;;;;;;;;18.68;67.30;101551.75;7408426;19;1772;-55
2022/04/29 09:00:41;;;;;;;;;;;;;;;18.66;67.19;101542.13;7408045;19;1397;-55
2022/04/29 09:03:13;;;;;;;;;;;;;;;18.71;67.57;101549.81;7406170;19;1915;-59
2022/04/29 09:05:41;;;;;;;;;;;;;;;18.85;66.82;101547.00;7408347;19;1650;-54
2022/04/29 09:08:10;;;;;;;;;;;;;;;18.85;66.83;101542.47;7405839;19;1594;-55
2022/04/29 09:10:38;;;;;;;;;;;;;;;18.88;67.12;101533.38;7407884;19;1465;-58
2022/04/29 09:13:14;;;;;;;;;;;;;;;18.84;66.83;101523.81;7408285;19;1539;-54
2022/04/29 09:15:51;;;;;;;;;;;;;;;18.87;67.04;101540.53;7407869;19;1603;-53
2022/04/29 09:18:33;;;;;;;;;;;;;;;18.87;66.77;101539.69;7408225;19;1551;-58
2022/04/29 09:21:02;;;;;;;;;;;;;;;18.88;67.04;101525.34;7408131;19;1606;-53
2022/04/29 09:23:31;;;;;;;;;;;;;;;18.87;66.98;101531.66;7404652;19;1859;-53
2022/04/29 09:26:03;;;;;;;;;;;;;;;18.89;66.97;101537.75;7407902;19;1449;-54
2022/04/29 09:28:33;;;;;;;;;;;;;;;18.90;67.04;101534.13;7406771;19;1367;-58
2022/04/29 09:31:04;;;;;;;;;;;;;;;18.94;66.69;101530.22;7405104;19;1737;-53
2022/04/29 09:33:35;;;;;;;;;;;;;;;18.94;66.81;101519.50;7407338;19;1487;-58
2022/04/29 09:36:03;;;;;;;;;;;;;;;18.97;67.00;101537.16;7406714;19;1539;-52
2022/04/29 09:41:25;;;;;;;;;;;;;;;18.90;67.16;101522.50;7401671;19;2445;-53
2022/04/29 09:43:53;;;;;;;;;;;;;;;18.90;66.99;101530.56;7403801;19;1857;-53
2022/04/29 09:46:26;;;;;;;;;;;;;;;18.88;67.13;101536.06;7405914;19;1413;-53
2022/04/29 09:48:58;;;;;;;;;;;;;;;18.87;67.16;101528.97;7407623;19;1844;-57
2022/04/29 09:51:42;;;;;;;;;;;;;;;18.87;66.70;101528.97;7406758;19;1472;-53
2022/04/29 09:54:11;;;;;;;;;;;;;;;18.85;66.67;101520.19;7405791;19;1580;-53
2022/04/29 09:56:40;;;;;;;;;;;;;;;18.84;67.18;101518.47;7405946;19;1336;-58
2022/04/29 09:59:09;;;;;;;;;;;;;;;18.85;67.16;101536.28;7405718;19;1310;-53
2022/04/29 10:01:40;;;;;;;;;;;;;;;18.82;66.93;101533.81;7404398;19;1821;-53
2022/04/29 10:04:10;;;;;;;;;;;;;;;18.82;67.11;101540.03;7406020;19;1578;-53
2022/04/29 10:06:41;;;;;;;;;;;;;;;18.81;67.23;101518.72;7406396;19;1669;-53
2022/04/29 10:09:11;;;;;;;;;;;;;;;18.82;66.76;101509.69;7405847;19;1677;-53
2022/04/29 10:11:40;;;;;;;;;;;;;;;18.83;66.88;101511.41;7405126;19;1598;-57
2022/04/29 10:14:10;;;;;;;;;;;;;;;18.81;66.82;101516.88;7405261;19;1531;-54
2022/04/29 10:16:42;;;;;;;;;;;;;;;18.81;66.75;101516.03;7404744;19;1540;-52
2022/04/29 10:21:54;;;;;;;;;;;;;;;18.81;66.88;101518.72;7405132;19;1842;-53
2022/04/29 10:24:24;;;;;;;;;;;;;;;18.84;66.77;101515.78;7405503;19;1606;-54
2022/04/29 10:26:54;;;;;;;;;;;;;;;18.81;66.98;101510.69;7404965;19;1678;-52
2022/04/29 10:29:22;;;;;;;;;;;;;;;18.80;67.04;101517.00;7405310;19;1539;-57
2022/04/29 10:32:05;;;;;;;;;;;;;;;18.84;67.31;101523.81;7405553;19;1302;-54
2022/04/29 10:34:36;;;;;;;;;;;;;;;18.79;66.87;101510.78;7405239;19;1384;-57
2022/04/29 10:37:12;;;;;;;;;;;;;;;18.80;67.16;101512.50;7406082;19;1366;-53
2022/04/29 10:39:40;;;;;;;;;;;;;;;18.83;66.76;101514.94;7404805;19;1718;-53
2022/04/29 10:42:09;;;;;;;;;;;;;;;18.77;67.02;101493.94;7402920;19;1857;-53
2022/04/29 10:44:58;;;;;;;;;;;;;;;18.82;67.28;101507.88;7403496;19;1350;-54
2022/04/29 10:47:30;;;;;;;;;;;;;;;18.90;67.21;101501.06;7403222;19;1624;-60
2022/04/29 10:50:32;;;;;;;;;;;;;;;18.94;67.51;101500.75;7403980;19;1328;-54
2022/04/29 10:53:04;;;;;;;;;;;;;;;18.97;67.14;101519.25;7403375;19;2188;-60
2022/04/29 10:55:33;;;;;;;;;;;;;;;19.03;67.10;101496.50;7402805;19;1322;-57
2022/04/29 10:58:05;;;;;;;;;;;;;;;19.35;66.52;101507.41;7402931;19;1576;-58
2022/04/29 11:00:33;;;;;;;;;;;;;;;19.92;65.56;101494.88;7402533;19;1510;-49
2022/04/29 11:03:17;;;;;;;;;;;;;;;20.33;63.85;101482.56;7400920;19;1845;-56
2022/04/29 11:05:48;;;;;;;;;;;;;;;20.43;63.49;101485.34;7404095;19;1558;-55
2022/04/29 11:08:16;;;;;;;;;;;;;;;20.55;63.29;101481.69;7402141;19;1975;-60
2022/04/29 11:11:05;;;;;;;;;;;;;;;20.52;63.53;101481.91;7403981;19;1793;-56
2022/04/29 11:13:37;;;;;;;;;;;;;;;20.82;62.94;101488.41;7403527;19;1842;-55
2022/04/29 11:16:13;;;;;;;;;;;;;;;20.86;62.57;101497.91;7403256;19;1917;-54
2022/04/29 11:18:43;;;;;;;;;;;;;;;20.34;64.25;101495.03;7402707;19;1890;-51
2022/04/29 11:27:03;;;;;;;;;;;;;;;19.51;66.34;101487.44;7396715;19;1716;-58
2022/04/29 11:29:32;;;;;;;;;;;;;;;19.47;66.43;101479.59;7401590;19;2644;-59
2022/04/29 11:32:02;;;;;;;;;;;;;;;19.41;66.55;101493.50;7405565;19;1260;-59
2022/04/29 11:34:30;;;;;;;;;;;;;;;19.39;66.42;101490.09;7411058;19;1216;-58
2022/04/29 11:37:01;;;;;;;;;;;;;;;19.36;67.00;101495.72;7411175;19;1685;-52
2022/04/29 11:39:29;;;;;;;;;;;;;;;19.33;67.11;101493.25;7410498;19;1741;-52
2022/04/29 11:41:59;;;;;;;;;;;;;;;19.31;67.12;101495.19;7409904;19;1634;-59
2022/04/29 11:44:38;;;;;;;;;;;;;;;19.25;67.28;101501.91;7407652;19;1886;-66
2022/04/29 11:47:07;;;;;;;;;;;;;;;19.32;66.78;101485.31;7409328;19;1626;-52
2022/04/29 11:49:36;;;;;;;;;;;;;;;19.28;67.19;101495.47;7410537;19;1472;-58
2022/04/29 11:52:22;;;;;;;;;;;;;;;19.32;66.76;101498.72;7410392;19;1535;-53
2022/04/29 11:54:51;;;;;;;;;;;;;;;19.20;67.19;101481.78;7410645;19;1330;-52
2022/04/29 11:57:20;;;;;;;;;;;;;;;19.14;67.84;101490.28;7409646;19;1813;-53
2022/04/29 11:59:48;;;;;;;;;;;;;;;19.10;67.99;101491.50;7409678;19;1725;-59
2022/04/29 12:02:19;;;;;;;;;;;;;;;19.16;67.55;101482.97;7406436;19;1493;-56
2022/04/29 12:04:57;;;;;;;;;;;;;;;19.12;67.82;101479.72;7410321;19;1535;-59
2022/04/29 12:07:29;;;;;;;;;;;;;;;19.11;67.78;101482.50;7408789;19;1468;-52
2022/04/29 12:09:59;;;;;;;;;;;;;;;18.99;67.88;101478.94;7409832;19;1519;-52
2022/04/29 12:12:28;;;;;;;;;;;;;;;18.82;67.86;101483.78;7408711;19;1760;-58
2022/04/29 12:14:58;;;;;;;;;;;;;;;18.88;67.20;101477.94;7406755;19;1372;-58
2022/04/29 12:17:33;;;;;;;;;;;;;;;18.89;67.41;101478.78;7409143;19;1523;-59
2022/04/29 12:20:02;;;;;;;;;;;;;;;18.90;68.01;101467.13;7409482;19;1617;-59
2022/04/29 12:22:34;;;;;;;;;;;;;;;18.89;67.76;101468.06;7409251;19;1855;-58
2022/04/29 12:25:17;;;;;;;;;;;;;;;18.90;67.74;101485.00;7409251;19;1847;-53
2022/04/29 12:27:45;;;;;;;;;;;;;;;18.88;67.98;101479.78;7409335;19;1691;-59
2022/04/29 12:35:47;;;;;;;;;;;;;;;18.87;67.78;101461.97;7408411;19;1432;-58
2022/04/29 12:38:22;;;;;;;;;;;;;;;18.86;67.71;101458.44;7407722;19;1633;-58
2022/04/29 12:40:51;;;;;;;;;;;;;;;18.87;67.76;101453.94;7407810;19;1536;-53
2022/04/29 12:43:19;;;;;;;;;;;;;;;18.87;67.57;101459.28;7406026;19;1848;-59
2022/04/29 12:45:47;;;;;;;;;;;;;;;18.86;67.53;101452.22;7408355;19;1551;-59
2022/04/29 12:48:17;;;;;;;;;;;;;;;18.86;67.42;101441.50;7409709;19;1546;-55
2022/04/29 12:50:46;;;;;;;;;;;;;;;18.85;67.50;101437.13;7407198;19;1637;-52
2022/04/29 12:53:16;;;;;;;;;;;;;;;18.88;67.72;101415.47;7409480;19;1640;-59
2022/04/29 12:55:53;;;;;;;;;;;;;;;18.85;67.65;101431.75;7407215;19;1606;-58
2022/04/29 12:58:22;;;;;;;;;;;;;;;18.87;67.84;101422.63;7407697;19;1602;-53
2022/04/29 13:01:03;;;;;;;;;;;;;;;18.88;67.48;101423.50;7406993;19;1389;-58
2022/04/29 13:03:32;;;;;;;;;;;;;;;18.89;67.40;101422.50;7408371;19;1858;-52
2022/04/29 13:06:01;;;;;;;;;;;;;;;18.91;67.32;101428.59;7408146;19;1330;-53
2022/04/29 13:08:30;;;;;;;;;;;;;;;18.92;67.36;101424.97;7407179;19;1556;-51
2022/04/29 13:11:03;;;;;;;;;;;;;;;18.91;67.40;101419.72;7407162;19;1615;-52
2022/04/29 13:13:32;;;;;;;;;;;;;;;18.87;67.67;101413.75;7407652;19;1619;-58
2022/04/29 13:16:00;;;;;;;;;;;;;;;18.83;68.18;101414.94;7407974;19;1542;-52
2022/04/29 13:18:29;;;;;;;;;;;;;;;18.83;68.23;101414.94;7408702;19;1576;-58
2022/04/29 13:20:58;;;;;;;;;;;;;;;18.80;68.03;101399.09;7406972;19;1558;-52
2022/04/29 13:23:26;;;;;;;;;;;;;;;18.81;68.33;101417.75;7405731;19;1852;-58
2022/04/29 13:25:57;;;;;;;;;;;;;;;18.78;68.32;101417.09;7406490;19;1621;-51
2022/04/29 13:28:28;;;;;;;;;;;;;;;18.82;67.98;101426.63;7407703;19;1634;-51
2022/04/29 13:30:56;;;;;;;;;;;;;;;18.80;68.00;101420.53;7405632;19;1734;-58
2022/04/29 13:33:25;;;;;;;;;;;;;;;18.81;68.04;101419.56;7407561;19;1640;-53
2022/04/29 13:35:53;;;;;;;;;;;;;;;18.80;68.43;101404.47;7405731;19;1540;-53